Young Ward, Utah
Current Conditions -  °F | °C
As of 10:55 AM on Saturday 20 Dec 2014 (Local Time) from KBMC Reporting Station
Overcast Overcast  
Wind Chill: 39°   Ceiling: 2100
Heat Index: 39°   Visibility: 5mi
Dew Point: 35°   Wind: 0mph
Humidity: 86%   Direction: NA
Pressure: 30.12"   Gusts: NA
Location:  41.645°N, 111.959°W
Report Text: KBMC 201755Z AUTO 00000KT 5SM BKN021 OVC028 04/02 A3012 RMK AO1 T00390018 10166 21035
Loading
Personal Weather Stations






























Interactive Weather Map New forecast layout! Learn more

10-Day Weather Forecast

Advertisements
Track Severe Weather on mobile